createdAt,value
2023-05-23T00:12:08.161Z,90.64
2023-05-23T00:14:11.466Z,90.59
2023-05-23T00:16:14.656Z,90.54
2023-05-23T00:18:17.938Z,90.79
2023-05-23T00:20:21.263Z,90.50
2023-05-23T00:22:24.608Z,90.86
2023-05-23T00:24:27.918Z,90.54
2023-05-23T00:26:31.381Z,90.51
2023-05-23T00:28:36.041Z,90.55
2023-05-23T00:30:39.273Z,90.94
2023-05-23T00:32:42.494Z,90.56
2023-05-23T00:34:46.844Z,90.62
2023-05-23T00:36:50.595Z,90.54
2023-05-23T00:38:54.447Z,90.41
2023-05-23T00:40:57.694Z,90.41
2023-05-23T00:43:02.066Z,90.32
2023-05-23T00:45:07.964Z,90.23
2023-05-23T00:47:13.885Z,90.54
2023-05-23T00:49:20.239Z,90.54
2023-05-23T00:51:24.223Z,90.57
2023-05-23T00:53:28.326Z,90.51
2023-05-23T00:55:32.209Z,90.76
2023-05-23T00:57:35.795Z,90.74
2023-05-23T00:59:39.480Z,90.86
2023-05-23T01:01:46.902Z,90.85
2023-05-23T01:03:51.099Z,90.86
2023-05-23T01:05:54.489Z,90.39
2023-05-23T01:07:57.856Z,90.71
2023-05-23T01:10:01.114Z,90.37
2023-05-23T01:12:16.472Z,90.33
2023-05-23T01:14:25.140Z,90.37
2023-05-23T01:16:36.918Z,90.38
2023-05-23T01:18:47.785Z,90.52
2023-05-23T01:20:56.307Z,90.25
2023-05-23T01:23:29.290Z,90.66
2023-05-23T01:25:48.122Z,90.44
2023-05-23T01:27:56.934Z,90.52
2023-05-23T01:30:03.297Z,90.59
2023-05-23T01:32:12.333Z,90.25
2023-05-23T01:34:17.155Z,90.54
2023-05-23T01:36:20.705Z,90.56
2023-05-23T01:38:23.905Z,90.35
2023-05-23T01:40:27.770Z,90.55
2023-05-23T01:42:31.204Z,90.34
2023-05-23T01:44:36.769Z,90.42
2023-05-23T01:46:40.975Z,90.49
2023-05-23T01:48:46.257Z,90.46
2023-05-23T01:50:49.960Z,90.22
2023-05-23T01:52:53.620Z,89.52
2023-05-23T01:54:58.247Z,89.44
2023-05-23T01:57:03.062Z,89.20
2023-05-23T01:59:06.383Z,88.69
2023-05-23T02:01:11.505Z,88.38
2023-05-23T02:03:14.928Z,88.56
2023-05-23T02:05:18.397Z,88.09
2023-05-23T02:07:23.262Z,87.95
2023-05-23T02:09:26.533Z,87.78
2023-05-23T02:11:29.887Z,87.61
2023-05-23T02:13:33.094Z,87.59
2023-05-23T02:15:36.847Z,87.76
2023-05-23T02:17:43.188Z,87.86
2023-05-23T02:19:46.999Z,87.64
2023-05-23T02:21:50.437Z,87.47
2023-05-23T02:23:54.914Z,87.62
2023-05-23T02:25:58.328Z,87.48
2023-05-23T02:28:01.605Z,87.60
2023-05-23T02:30:05.257Z,87.56
2023-05-23T02:32:09.221Z,87.72
2023-05-23T02:34:13.979Z,88.06
2023-05-23T02:36:17.491Z,87.99
2023-05-23T02:38:21.084Z,88.10
2023-05-23T02:40:24.469Z,88.04
2023-05-23T02:42:28.040Z,87.67
2023-05-23T02:44:31.398Z,87.90
2023-05-23T02:46:34.902Z,88.10
2023-05-23T02:48:39.733Z,88.05
2023-05-23T02:50:44.689Z,88.06
2023-05-23T02:52:47.904Z,87.98
2023-05-23T02:54:51.185Z,87.84
2023-05-23T02:56:54.889Z,87.70
2023-05-23T02:58:58.988Z,87.81
2023-05-23T03:01:02.889Z,87.83
2023-05-23T03:03:06.206Z,88.11
2023-05-23T03:05:09.991Z,88.26
2023-05-23T03:07:24.546Z,88.09
2023-05-23T03:09:31.258Z,88.09
2023-05-23T03:11:34.533Z,87.83
2023-05-23T03:13:37.791Z,87.89
2023-05-23T03:15:41.203Z,88.12
2023-05-23T03:17:44.592Z,88.23
2023-05-23T03:19:47.876Z,87.95
2023-05-23T03:21:52.338Z,88.02
2023-05-23T03:23:57.021Z,88.32
2023-05-23T03:26:00.878Z,88.10
2023-05-23T03:28:04.140Z,88.36
2023-05-23T03:30:08.646Z,88.19
2023-05-23T03:32:12.511Z,87.97
2023-05-23T03:34:16.504Z,88.03
2023-05-23T03:36:19.791Z,87.97
2023-05-23T03:38:23.024Z,87.81
2023-05-23T03:40:27.745Z,88.10
2023-05-23T03:42:31.489Z,88.12
2023-05-23T03:44:34.840Z,88.12
2023-05-23T03:46:40.255Z,87.84
2023-05-23T03:48:44.461Z,87.85
2023-05-23T03:50:47.731Z,87.81
2023-05-23T03:52:51.100Z,87.46
2023-05-23T03:54:55.201Z,87.22
2023-05-23T03:56:59.859Z,87.55
2023-05-23T03:59:03.226Z,87.62
2023-05-23T04:01:06.546Z,87.39
2023-05-23T04:03:10.789Z,87.58
2023-05-23T04:05:14.413Z,87.72
2023-05-23T04:07:17.871Z,87.25
2023-05-23T04:09:21.175Z,87.31
2023-05-23T04:11:25.967Z,87.62
2023-05-23T04:13:32.068Z,87.37
2023-05-23T04:15:35.479Z,87.18
2023-05-23T04:17:47.760Z,87.39
2023-05-23T04:19:51.053Z,87.48
2023-05-23T04:21:54.916Z,87.36
2023-05-23T04:23:58.195Z,87.89
2023-05-23T04:26:01.980Z,87.50
2023-05-23T04:28:12.555Z,87.72
2023-05-23T04:30:18.348Z,87.69
2023-05-23T04:32:23.149Z,87.56
2023-05-23T04:34:27.144Z,87.64
2023-05-23T04:36:31.494Z,87.33
2023-05-23T04:38:35.528Z,87.75
2023-05-23T04:40:39.670Z,87.69
2023-05-23T04:42:53.696Z,87.62
2023-05-23T04:45:11.525Z,88.00
2023-05-23T04:47:36.960Z,87.69
2023-05-23T04:49:43.907Z,87.82
2023-05-23T04:51:48.053Z,87.72
2023-05-23T04:54:05.221Z,88.15
2023-05-23T04:56:09.963Z,87.91
2023-05-23T04:58:14.952Z,88.19
2023-05-23T05:00:20.486Z,88.30
2023-05-23T05:02:24.420Z,88.59
2023-05-23T05:04:29.086Z,88.35
2023-05-23T05:06:32.758Z,88.34
2023-05-23T05:08:36.318Z,88.54
2023-05-23T05:10:42.085Z,88.60
2023-05-23T05:12:46.887Z,88.66
2023-05-23T05:14:50.801Z,88.71
2023-05-23T05:16:55.026Z,88.71
2023-05-23T05:18:59.268Z,88.69
2023-05-23T05:21:03.884Z,88.64
2023-05-23T05:23:09.728Z,89.00
2023-05-23T05:25:13.563Z,88.95
2023-05-23T05:27:16.848Z,89.09
2023-05-23T05:29:20.284Z,89.01
2023-05-23T05:31:23.676Z,89.26
2023-05-23T05:33:28.514Z,89.23
2023-05-23T05:35:43.072Z,89.35
2023-05-23T05:37:48.381Z,89.15
2023-05-23T05:39:51.616Z,89.11
2023-05-23T05:41:54.910Z,89.29
2023-05-23T05:43:58.211Z,89.24
2023-05-23T05:46:01.622Z,89.52
2023-05-23T05:48:05.773Z,89.65
2023-05-23T05:50:10.955Z,89.28
2023-05-23T05:52:14.767Z,89.35
2023-05-23T05:54:19.494Z,89.56
2023-05-23T05:56:23.705Z,89.17
2023-05-23T05:58:27.721Z,89.69
2023-05-23T06:00:42.458Z,89.50
2023-05-23T06:02:48.425Z,89.60
2023-05-23T06:04:56.808Z,89.54
2023-05-23T06:07:00.438Z,89.61
2023-05-23T06:09:03.703Z,89.84
2023-05-23T06:11:08.642Z,89.52
2023-05-23T06:13:11.957Z,89.94
2023-05-23T06:15:17.566Z,89.62
2023-05-23T06:17:21.732Z,89.72
2023-05-23T06:19:25.185Z,90.15
2023-05-23T06:21:28.642Z,89.92
2023-05-23T06:23:32.145Z,90.31
2023-05-23T06:25:35.346Z,90.14
2023-05-23T06:27:40.002Z,90.47
2023-05-23T06:29:43.281Z,90.43
2023-05-23T06:31:46.558Z,90.36
2023-05-23T06:33:49.854Z,90.65
2023-05-23T06:35:53.889Z,90.49
2023-05-23T06:37:57.194Z,90.47
2023-05-23T06:40:00.373Z,90.43
2023-05-23T06:42:04.418Z,90.61
2023-05-23T06:44:22.845Z,90.60
2023-05-23T06:46:30.752Z,91.01
2023-05-23T06:48:34.489Z,90.64
2023-05-23T06:50:37.853Z,90.79
2023-05-23T06:52:42.744Z,90.57
2023-05-23T06:54:46.568Z,90.29
2023-05-23T06:56:50.030Z,89.91
2023-05-23T06:58:53.328Z,89.52
2023-05-23T07:00:58.156Z,89.62
2023-05-23T07:03:07.151Z,89.33
2023-05-23T07:05:11.074Z,89.17
2023-05-23T07:07:25.210Z,88.63
2023-05-23T07:09:28.776Z,88.67
2023-05-23T07:11:42.315Z,88.42
2023-05-23T07:13:46.399Z,87.99
2023-05-23T07:15:59.347Z,88.12
2023-05-23T07:18:03.258Z,88.03
2023-05-23T07:20:08.877Z,87.94
2023-05-23T07:22:14.335Z,87.72
2023-05-23T07:24:18.628Z,87.58
2023-05-23T07:26:21.883Z,87.76
2023-05-23T07:28:31.363Z,87.76
2023-05-23T07:30:35.368Z,87.59
2023-05-23T07:32:40.025Z,87.67
2023-05-23T07:34:45.157Z,87.00
2023-05-23T07:36:50.385Z,86.73
2023-05-23T07:38:55.111Z,86.55
2023-05-23T07:41:07.250Z,86.37
2023-05-23T07:43:14.665Z,86.11
2023-05-23T07:45:17.978Z,85.34
2023-05-23T07:47:21.289Z,84.44
2023-05-23T07:49:26.758Z,84.15
2023-05-23T07:51:30.952Z,83.90
2023-05-23T07:53:35.003Z,83.84
2023-05-23T07:55:39.791Z,83.85
2023-05-23T07:57:43.081Z,83.91
2023-05-23T07:59:46.393Z,84.24
2023-05-23T08:01:50.671Z,83.73
2023-05-23T08:03:56.019Z,84.02
2023-05-23T08:06:13.002Z,84.27
2023-05-23T08:08:16.306Z,84.06
2023-05-23T08:10:19.684Z,84.24
2023-05-23T08:12:23.216Z,83.69
2023-05-23T08:14:49.091Z,83.90
2023-05-23T08:17:14.759Z,83.64
2023-05-23T08:19:18.896Z,83.54
2023-05-23T08:21:24.918Z,82.84
2023-05-23T08:23:28.616Z,82.97
2023-05-23T08:25:32.454Z,82.96
2023-05-23T08:27:36.992Z,82.83
2023-05-23T08:29:48.225Z,83.18
2023-05-23T08:31:51.601Z,83.20
2023-05-23T08:33:55.178Z,83.37
2023-05-23T08:35:58.588Z,83.60
2023-05-23T08:38:03.554Z,84.34
2023-05-23T08:40:13.763Z,84.36
2023-05-23T08:42:21.153Z,84.72
2023-05-23T08:44:27.731Z,84.73
2023-05-23T08:46:45.478Z,85.29
2023-05-23T08:48:55.188Z,85.44
2023-05-23T08:51:00.690Z,85.02
2023-05-23T08:53:08.615Z,85.17
2023-05-23T08:55:13.408Z,85.51
2023-05-23T08:57:17.936Z,85.58
2023-05-23T08:59:27.589Z,85.71
2023-05-23T09:01:31.908Z,85.78
2023-05-23T09:03:39.972Z,85.86
2023-05-23T09:05:53.189Z,86.14
2023-05-23T09:07:56.902Z,86.44
2023-05-23T09:10:02.129Z,86.45
2023-05-23T09:12:06.225Z,86.40
2023-05-23T09:14:10.163Z,86.50
2023-05-23T09:16:18.957Z,86.57
2023-05-23T09:18:27.377Z,86.47
2023-05-23T09:20:31.509Z,86.78
2023-05-23T09:22:40.006Z,86.92
2023-05-23T09:24:51.691Z,86.97
2023-05-23T09:26:56.281Z,87.21
2023-05-23T09:29:00.434Z,87.31
2023-05-23T09:31:05.324Z,87.57
2023-05-23T09:33:09.126Z,87.56
2023-05-23T09:35:14.503Z,87.56
2023-05-23T09:37:19.685Z,87.59
2023-05-23T09:39:23.406Z,87.59
2023-05-23T09:41:26.770Z,87.75
2023-05-23T09:43:31.663Z,87.83
2023-05-23T09:45:36.152Z,88.00
2023-05-23T09:47:39.820Z,87.98
2023-05-23T09:49:45.153Z,87.93
2023-05-23T09:51:58.999Z,87.93
2023-05-23T09:54:02.286Z,87.79
2023-05-23T09:56:06.690Z,87.62
2023-05-23T09:58:10.800Z,87.49
2023-05-23T10:00:17.151Z,87.30
2023-05-23T10:02:48.832Z,87.10
2023-05-23T10:04:53.576Z,86.68
2023-05-23T10:07:02.394Z,86.62
2023-05-23T10:09:08.112Z,86.44
2023-05-23T10:11:50.523Z,85.87
2023-05-23T10:13:54.324Z,85.76
2023-05-23T10:16:04.400Z,85.39
2023-05-23T10:18:14.010Z,85.23
2023-05-23T10:20:19.302Z,85.12
2023-05-23T10:22:23.247Z,85.18
2023-05-23T10:24:26.874Z,85.16
2023-05-23T10:26:30.133Z,84.79
2023-05-23T10:28:33.719Z,84.14
2023-05-23T10:30:37.110Z,83.99
2023-05-23T10:32:43.504Z,83.78
2023-05-23T10:34:57.886Z,83.44
2023-05-23T10:37:04.264Z,83.46
2023-05-23T10:39:15.444Z,82.90
2023-05-23T10:41:27.028Z,82.33
2023-05-23T10:43:35.723Z,82.04
2023-05-23T10:45:43.882Z,81.66
2023-05-23T10:47:50.462Z,81.27
2023-05-23T10:49:54.889Z,81.04
2023-05-23T10:51:58.163Z,80.60
2023-05-23T10:54:01.550Z,80.07
2023-05-23T10:56:07.443Z,79.53
2023-05-23T10:58:11.928Z,79.28
2023-05-23T11:00:17.061Z,78.94
2023-05-23T11:02:27.455Z,78.10
2023-05-23T11:04:32.137Z,77.06
2023-05-23T11:06:41.290Z,76.51
2023-05-23T11:08:48.892Z,75.88
2023-05-23T11:10:57.044Z,75.72
2023-05-23T11:13:08.430Z,74.81
2023-05-23T11:15:21.919Z,74.14
2023-05-23T11:17:33.615Z,73.83
2023-05-23T11:19:38.679Z,73.29
2023-05-23T11:21:42.187Z,72.73
2023-05-23T11:23:45.410Z,71.83
2023-05-23T11:25:50.816Z,71.22
2023-05-23T11:27:55.156Z,70.69
2023-05-23T11:30:04.076Z,70.69
2023-05-23T11:32:16.849Z,69.21
2023-05-23T11:34:21.791Z,69.18
2023-05-23T11:36:27.111Z,68.29
2023-05-23T11:38:31.616Z,67.96
2023-05-23T11:40:36.488Z,67.28
2023-05-23T11:42:43.220Z,66.74
2023-05-23T11:44:50.403Z,65.66
2023-05-23T11:47:04.388Z,65.07
2023-05-23T11:49:12.754Z,64.37
2023-05-23T11:51:17.189Z,63.82
2023-05-23T11:53:25.639Z,63.87
2023-05-23T11:55:29.444Z,64.17
2023-05-23T11:57:33.141Z,63.95
2023-05-23T11:59:36.434Z,63.63
2023-05-23T12:01:39.931Z,63.02
2023-05-23T12:03:50.449Z,62.42
2023-05-23T12:05:53.934Z,60.54
2023-05-23T12:07:57.244Z,60.72
2023-05-23T12:10:01.987Z,60.55
2023-05-23T12:12:07.245Z,59.46
2023-05-23T12:14:11.070Z,59.18
2023-05-23T12:16:15.747Z,58.93
2023-05-23T12:18:24.548Z,58.73
2023-05-23T12:20:35.557Z,58.15
2023-05-23T12:22:39.012Z,57.71
2023-05-23T12:24:46.812Z,58.49
2023-05-23T12:26:53.559Z,57.26
2023-05-23T12:29:00.124Z,56.74
2023-05-23T12:31:10.765Z,56.87
2023-05-23T12:33:14.563Z,56.64
2023-05-23T12:35:17.825Z,57.24
2023-05-23T12:37:21.041Z,57.29
2023-05-23T12:39:28.795Z,56.84
2023-05-23T12:41:33.312Z,56.96
2023-05-23T12:43:40.831Z,56.14
2023-05-23T12:45:44.321Z,55.80
2023-05-23T12:47:47.727Z,54.86
2023-05-23T12:49:50.926Z,54.84
2023-05-23T12:51:54.247Z,53.91
2023-05-23T12:53:58.424Z,53.21
2023-05-23T12:56:01.682Z,53.03
2023-05-23T12:58:04.886Z,52.73
2023-05-23T13:00:11.751Z,52.83
2023-05-23T13:02:14.994Z,52.67
2023-05-23T13:04:18.313Z,52.70
2023-05-23T13:06:21.731Z,52.98
2023-05-23T13:08:25.025Z,53.24
2023-05-23T13:10:30.951Z,53.25
2023-05-23T13:12:35.453Z,53.42
2023-05-23T13:14:38.951Z,53.58
2023-05-23T13:16:45.041Z,53.89
2023-05-23T13:18:48.611Z,54.10
2023-05-23T13:20:52.236Z,54.44
2023-05-23T13:22:55.467Z,54.92
2023-05-23T13:24:58.692Z,55.44
2023-05-23T13:27:02.041Z,55.99
2023-05-23T13:29:06.335Z,55.53
2023-05-23T13:31:09.641Z,55.91
2023-05-23T13:33:14.437Z,55.99
2023-05-23T13:35:18.260Z,55.10
2023-05-23T13:37:21.490Z,54.95
2023-05-23T13:39:24.676Z,54.61
2023-05-23T13:41:27.968Z,54.48
2023-05-23T13:43:31.257Z,54.30
2023-05-23T13:45:34.519Z,53.97
2023-05-23T13:47:37.872Z,54.03
2023-05-23T13:49:43.125Z,53.58
2023-05-23T13:51:46.446Z,53.28
2023-05-23T13:53:49.775Z,53.06
2023-05-23T13:55:53.309Z,53.46
2023-05-23T13:57:56.670Z,53.48
2023-05-23T13:59:59.989Z,52.88
2023-05-23T14:02:03.282Z,52.56
2023-05-23T14:04:07.324Z,52.90
2023-05-23T14:06:12.063Z,53.00
2023-05-23T14:08:15.342Z,53.07
2023-05-23T14:10:18.958Z,53.28
2023-05-23T14:12:22.188Z,53.65
2023-05-23T14:14:27.065Z,53.41
2023-05-23T14:16:30.434Z,53.17
2023-05-23T14:18:33.910Z,53.49
2023-05-23T14:20:37.125Z,54.17
2023-05-23T14:22:42.120Z,53.81
2023-05-23T14:24:45.615Z,54.18
2023-05-23T14:26:49.994Z,54.33
2023-05-23T14:28:53.264Z,54.18
2023-05-23T14:30:56.900Z,54.17
2023-05-23T14:33:00.419Z,53.76
2023-05-23T14:35:03.703Z,54.47
2023-05-23T14:37:07.046Z,54.56
2023-05-23T14:39:11.734Z,54.52
2023-05-23T14:41:15.251Z,54.67
2023-05-23T14:43:19.162Z,55.37
2023-05-23T14:45:22.438Z,54.43
2023-05-23T14:47:25.669Z,54.83
2023-05-23T14:49:28.891Z,54.74
2023-05-23T14:51:46.087Z,54.77
2023-05-23T14:53:52.052Z,54.33
2023-05-23T14:55:57.171Z,54.55
2023-05-23T14:58:00.612Z,54.02
2023-05-23T15:00:05.641Z,53.58
2023-05-23T15:02:09.667Z,53.50
2023-05-23T15:04:13.138Z,53.58
2023-05-23T15:06:16.471Z,53.53
2023-05-23T15:08:19.695Z,53.66
2023-05-23T15:10:22.955Z,54.06
2023-05-23T15:12:27.599Z,54.32
2023-05-23T15:14:32.232Z,54.36
2023-05-23T15:16:36.936Z,55.08
2023-05-23T15:18:42.060Z,55.74
2023-05-23T15:20:45.893Z,55.76
2023-05-23T15:22:49.081Z,55.90
2023-05-23T15:24:52.422Z,55.55
2023-05-23T15:27:00.159Z,55.87
2023-05-23T15:29:09.739Z,54.93
2023-05-23T15:31:14.584Z,54.51
2023-05-23T15:33:17.952Z,54.14
2023-05-23T15:35:21.435Z,53.74
2023-05-23T15:37:24.740Z,53.57
2023-05-23T15:39:28.398Z,53.56
2023-05-23T15:41:31.655Z,53.73
2023-05-23T15:43:36.122Z,54.23
2023-05-23T15:45:40.852Z,53.89
2023-05-23T15:47:44.100Z,54.40
2023-05-23T15:49:47.359Z,54.27
2023-05-23T15:51:50.653Z,54.33
2023-05-23T15:56:00.055Z,54.81
2023-05-23T15:58:03.295Z,55.11
2023-05-23T16:00:09.530Z,54.75
2023-05-23T16:02:19.037Z,54.59
2023-05-23T16:04:23.506Z,54.34
2023-05-23T16:06:28.244Z,54.43
2023-05-23T16:08:31.501Z,54.52
2023-05-23T16:10:34.820Z,54.42
2023-05-23T16:12:38.010Z,54.33
2023-05-23T16:14:41.295Z,54.70
2023-05-23T16:16:44.592Z,55.23
2023-05-23T16:18:49.296Z,55.39
2023-05-23T16:20:52.661Z,55.53
2023-05-23T16:22:56.004Z,55.77
2023-05-23T16:24:59.221Z,55.16
2023-05-23T16:27:03.138Z,54.63
2023-05-23T16:29:07.676Z,54.35
2023-05-23T16:31:12.576Z,54.41
2023-05-23T16:33:15.866Z,54.62
2023-05-23T16:35:20.553Z,54.65
2023-05-23T16:37:23.862Z,54.47
2023-05-23T16:39:27.198Z,54.35
2023-05-23T16:41:30.469Z,53.83
2023-05-23T16:43:35.452Z,53.52
2023-05-23T16:45:41.036Z,53.60
2023-05-23T16:47:45.193Z,53.79
2023-05-23T16:49:48.612Z,54.20
2023-05-23T16:51:53.285Z,54.58
2023-05-23T16:53:56.554Z,55.04
2023-05-23T16:55:59.842Z,55.19
2023-05-23T16:58:03.146Z,54.94
2023-05-23T17:00:07.696Z,54.79
2023-05-23T17:02:13.758Z,55.11
2023-05-23T17:04:19.606Z,55.82
2023-05-23T17:06:23.792Z,55.87
2023-05-23T17:08:28.452Z,56.03
2023-05-23T17:10:31.723Z,56.43
2023-05-23T17:12:35.052Z,56.99
2023-05-23T17:14:38.549Z,57.29
2023-05-23T17:16:42.022Z,57.59
2023-05-23T17:18:45.519Z,57.86
2023-05-23T17:20:48.894Z,58.06
2023-05-23T17:22:52.199Z,58.25
2023-05-23T17:24:56.791Z,58.47
2023-05-23T17:27:00.129Z,58.71
2023-05-23T17:29:03.361Z,58.80
2023-05-23T17:31:06.782Z,58.81
2023-05-23T17:33:12.491Z,59.32
2023-05-23T17:35:15.822Z,59.04
2023-05-23T17:37:19.590Z,58.58
2023-05-23T17:39:22.814Z,58.58
2023-05-23T17:41:27.768Z,58.49
2023-05-23T17:43:31.080Z,58.55
2023-05-23T17:45:34.480Z,58.53
2023-05-23T17:47:37.857Z,58.08
2023-05-23T17:49:41.825Z,58.11
2023-05-23T17:51:45.086Z,58.10
2023-05-23T17:53:51.721Z,57.97
2023-05-23T17:55:55.111Z,57.79
2023-05-23T17:58:00.150Z,58.05
2023-05-23T18:00:03.596Z,58.15
2023-05-23T18:02:16.428Z,58.25
2023-05-23T18:04:19.760Z,58.41
2023-05-23T18:06:23.092Z,58.52
2023-05-23T18:08:26.387Z,58.75
2023-05-23T18:10:30.146Z,58.99
2023-05-23T18:12:33.521Z,59.35
2023-05-23T18:14:39.429Z,59.76
2023-05-23T18:16:42.701Z,60.06
2023-05-23T18:18:45.966Z,60.46
2023-05-23T18:20:49.220Z,60.75
2023-05-23T18:22:54.739Z,60.82
2023-05-23T18:24:57.960Z,61.06
2023-05-23T18:27:03.037Z,60.99
2023-05-23T18:29:06.319Z,61.04
2023-05-23T18:31:11.157Z,61.17
2023-05-23T18:33:14.497Z,61.18
2023-05-23T18:35:18.328Z,61.45
2023-05-23T18:37:21.552Z,61.49
2023-05-23T18:39:24.954Z,61.68
2023-05-23T18:41:28.714Z,61.84
2023-05-23T18:43:31.986Z,61.52
2023-05-23T18:45:36.860Z,61.57
2023-05-23T18:47:42.237Z,61.25
2023-05-23T18:49:45.521Z,61.21
2023-05-23T18:51:51.651Z,61.45
2023-05-23T18:53:54.932Z,61.44
2023-05-23T18:55:58.165Z,61.63
2023-05-23T18:58:01.398Z,61.68
2023-05-23T19:00:07.448Z,61.63
2023-05-23T19:02:10.959Z,61.70
2023-05-23T19:04:15.813Z,61.66
2023-05-23T19:06:19.186Z,61.48
2023-05-23T19:08:22.494Z,61.59
2023-05-23T19:10:25.714Z,61.61
2023-05-23T19:12:29.012Z,61.61
2023-05-23T19:14:32.280Z,61.68
2023-05-23T19:16:36.296Z,61.57
2023-05-23T19:18:39.631Z,61.66
2023-05-23T19:20:44.366Z,61.64
2023-05-23T19:22:52.257Z,61.77
2023-05-23T19:24:56.037Z,61.97
2023-05-23T19:26:59.387Z,62.16
2023-05-23T19:29:02.672Z,62.10
2023-05-23T19:31:07.701Z,62.16
2023-05-23T19:33:11.555Z,62.31
2023-05-23T19:35:17.091Z,62.44
2023-05-23T19:37:22.378Z,62.17
2023-05-23T19:39:25.653Z,61.94
2023-05-23T19:41:28.916Z,62.00
2023-05-23T19:43:32.155Z,61.81
2023-05-23T19:45:36.906Z,61.68
2023-05-23T19:47:40.321Z,61.90
2023-05-23T19:49:43.900Z,61.48
2023-05-23T19:51:47.148Z,61.11
2023-05-23T19:53:52.436Z,61.02
2023-05-23T19:55:57.686Z,61.11
2023-05-23T19:58:01.068Z,60.88
2023-05-23T20:00:06.187Z,61.12
2023-05-23T20:02:11.968Z,60.91
2023-05-23T20:04:15.289Z,61.02
2023-05-23T20:06:18.879Z,60.87
2023-05-23T20:08:23.777Z,60.85
2023-05-23T20:10:28.975Z,60.75
2023-05-23T20:12:32.309Z,60.81
2023-05-23T20:14:35.796Z,60.84
2023-05-23T20:16:39.783Z,60.87
2023-05-23T20:18:44.051Z,61.15
2023-05-23T20:20:47.518Z,61.16
2023-05-23T20:22:51.314Z,61.46
2023-05-23T20:24:54.648Z,61.74
2023-05-23T20:26:59.360Z,61.95
2023-05-23T20:29:02.666Z,62.11
2023-05-23T20:31:06.069Z,62.28
2023-05-23T20:33:09.418Z,62.66
2023-05-23T20:35:12.882Z,62.78
2023-05-23T20:37:16.102Z,62.77
2023-05-23T20:39:21.813Z,63.01
2023-05-23T20:41:25.744Z,62.97
2023-05-23T20:43:30.363Z,63.04
2023-05-23T20:45:34.258Z,63.08
2023-05-23T20:47:41.444Z,63.28
2023-05-23T20:49:44.901Z,63.29
2023-05-23T20:51:48.136Z,63.55
2023-05-23T20:53:53.370Z,63.52
2023-05-23T20:55:57.367Z,63.68
2023-05-23T20:58:00.606Z,63.74
2023-05-23T21:00:10.463Z,64.04
2023-05-23T21:02:14.258Z,64.21
2023-05-23T21:04:18.914Z,64.46
2023-05-23T21:06:22.685Z,64.75
2023-05-23T21:08:25.996Z,65.00
2023-05-23T21:10:29.229Z,65.31
2023-05-23T21:12:32.438Z,65.41
2023-05-23T21:14:35.673Z,65.62
2023-05-23T21:16:40.268Z,65.58
2023-05-23T21:18:43.531Z,65.59
2023-05-23T21:20:46.989Z,65.61
2023-05-23T21:22:50.208Z,65.67
2023-05-23T21:24:53.487Z,65.82
2023-05-23T21:26:56.882Z,66.03
2023-05-23T21:29:00.229Z,66.07
2023-05-23T21:31:04.133Z,66.18
2023-05-23T21:33:08.837Z,66.29
2023-05-23T21:35:12.107Z,66.29
2023-05-23T21:37:15.723Z,66.26
2023-05-23T21:39:19.156Z,66.28
2023-05-23T21:41:25.913Z,66.29
2023-05-23T21:43:29.133Z,66.44
2023-05-23T21:45:32.587Z,66.33
2023-05-23T21:47:35.917Z,66.42
2023-05-23T21:49:40.847Z,66.45
2023-05-23T21:51:44.539Z,66.25
2023-05-23T21:53:47.911Z,66.52
2023-05-23T21:55:51.505Z,66.54
2023-05-23T21:57:54.853Z,66.57
2023-05-23T21:59:58.205Z,66.76
2023-05-23T22:02:17.571Z,66.72
2023-05-23T22:04:21.152Z,66.88
2023-05-23T22:06:26.298Z,67.04
2023-05-23T22:08:33.352Z,66.78
2023-05-23T22:10:37.282Z,66.86
2023-05-23T22:12:41.365Z,66.96
2023-05-23T22:14:45.020Z,66.89
2023-05-23T22:16:50.178Z,67.00
2023-05-23T22:18:53.973Z,67.02
2023-05-23T22:20:57.529Z,67.12
2023-05-23T22:23:03.252Z,67.12
2023-05-23T22:25:08.191Z,67.01
2023-05-23T22:27:11.818Z,67.01
2023-05-23T22:29:15.503Z,66.99
2023-05-23T22:31:19.165Z,66.78
2023-05-23T22:33:22.790Z,66.89
2023-05-23T22:35:26.344Z,66.90
2023-05-23T22:37:29.940Z,66.76
2023-05-23T22:39:34.994Z,66.69
2023-05-23T22:41:39.288Z,66.79
2023-05-23T22:43:43.003Z,66.83
2023-05-23T22:45:46.671Z,66.73
2023-05-23T22:47:50.823Z,66.66
2023-05-23T22:49:56.626Z,66.65
2023-05-23T22:52:00.254Z,66.69
2023-05-23T22:54:04.519Z,66.77
2023-05-23T22:56:09.629Z,66.85
2023-05-23T22:58:14.065Z,66.76
2023-05-23T23:00:21.927Z,66.80
2023-05-23T23:02:25.949Z,66.82
2023-05-23T23:04:31.245Z,66.91
2023-05-23T23:06:35.762Z,66.99
2023-05-23T23:08:39.517Z,67.15
2023-05-23T23:10:43.972Z,67.04
2023-05-23T23:12:49.288Z,67.24
2023-05-23T23:14:52.813Z,67.10
2023-05-23T23:16:58.230Z,67.39
2023-05-23T23:19:02.720Z,67.38
2023-05-23T23:21:06.312Z,67.30
2023-05-23T23:23:09.875Z,67.25
2023-05-23T23:25:14.265Z,67.27
2023-05-23T23:27:17.812Z,67.35
2023-05-23T23:29:22.776Z,67.43
2023-05-23T23:31:26.379Z,67.50
2023-05-23T23:33:29.920Z,67.47
2023-05-23T23:35:33.530Z,67.56
2023-05-23T23:37:37.099Z,67.48
2023-05-23T23:39:40.652Z,67.59
2023-05-23T23:41:44.530Z,67.58
2023-05-23T23:43:48.497Z,67.73
2023-05-23T23:45:53.519Z,67.82
2023-05-23T23:47:57.183Z,68.00
2023-05-23T23:50:00.946Z,67.84
2023-05-23T23:52:04.983Z,67.89
2023-05-23T23:54:08.538Z,67.69
2023-05-23T23:56:12.102Z,67.98
2023-05-23T23:58:15.708Z,67.89
